Time;durP1;ratioP1;P1;durP2;ratioP2;P2;SDS_P1;SDS_P2;PMS_P1;PMS_P2;Temp;Humidity;BMP_temperature;BMP_pressure;BME280_temperature;BME280_humidity;BME280_pressure;Samples;Min_cycle;Max_cycle;Signal;HPM_P1;HPM_P2
2020/12/16 00:00:33;;;;;;;;;;;;;;;-1.03;100.00;101444.88;1867246;77;20412;-39
2020/12/16 00:03:02;;;;;;;;;;;;;;;-1.01;100.00;101445.84;1867284;77;20250;-38
2020/12/16 00:05:29;;;;;;;;;;;;;;;-1.02;100.00;101445.77;1867180;77;20142;-39
2020/12/16 00:07:57;;;;;;;;;;;;;;;-1.03;100.00;101457.75;1867436;77;20440;-39
2020/12/16 00:10:25;;;;;;;;;;;;;;;-1.04;100.00;101453.81;1867318;77;20133;-39
2020/12/16 00:12:53;;;;;;;;;;;;;;;-1.04;100.00;101449.95;1867315;77;20161;-37
2020/12/16 00:15:20;;;;;;;;;;;;;;;-1.05;100.00;101446.94;1867369;77;20158;-40
2020/12/16 00:17:49;;;;;;;;;;;;;;;-1.06;100.00;101444.77;1867238;77;20150;-39
2020/12/16 00:20:17;;;;;;;;;;;;;;;-1.05;100.00;101456.80;1867408;77;20459;-38
2020/12/16 00:22:44;;;;;;;;;;;;;;;-1.06;100.00;101461.50;1867258;77;20277;-39
2020/12/16 00:25:14;;;;;;;;;;;;;;;-1.06;100.00;101453.78;1867155;77;20253;-41
2020/12/16 00:27:43;;;;;;;;;;;;;;;-1.05;100.00;101457.23;1866790;77;20459;-41
2020/12/16 00:30:10;;;;;;;;;;;;;;;-1.02;100.00;101465.06;1866075;77;20224;-40
2020/12/16 00:32:38;;;;;;;;;;;;;;;-1.03;100.00;101467.16;1867199;76;20148;-38
2020/12/16 00:35:07;;;;;;;;;;;;;;;-1.02;100.00;101466.34;1823453;79;20184;-39
2020/12/16 00:37:37;;;;;;;;;;;;;;;-1.01;100.00;101459.98;1823857;79;20392;-39
2020/12/16 00:40:05;;;;;;;;;;;;;;;-1.00;100.00;101457.89;1823476;78;20125;-37
2020/12/16 00:42:33;;;;;;;;;;;;;;;-0.97;100.00;101458.41;1828285;78;20148;-38
2020/12/16 00:45:01;;;;;;;;;;;;;;;-0.96;100.00;101465.31;1833296;77;20289;-38
2020/12/16 00:47:34;;;;;;;;;;;;;;;-0.96;100.00;101458.88;1834942;77;20293;-39
2020/12/16 00:50:05;;;;;;;;;;;;;;;-0.94;100.00;101461.13;1833397;77;20277;-36
2020/12/16 00:52:34;;;;;;;;;;;;;;;-0.94;100.00;101458.55;1837270;77;20131;-38
2020/12/16 00:55:04;;;;;;;;;;;;;;;-0.94;100.00;101466.27;1866166;77;20181;-38
2020/12/16 00:57:33;;;;;;;;;;;;;;;-0.93;100.00;101465.46;1838377;77;20183;-39
2020/12/16 01:00:03;;;;;;;;;;;;;;;-0.92;100.00;101468.08;1835356;78;20143;-37
2020/12/16 01:02:31;;;;;;;;;;;;;;;-0.90;100.00;101463.00;1835456;77;20210;-37
2020/12/16 01:04:59;;;;;;;;;;;;;;;-0.90;100.00;101465.57;1837383;77;20172;-39
2020/12/16 01:07:27;;;;;;;;;;;;;;;-0.88;100.00;101465.23;1832635;78;20175;-38
2020/12/16 01:09:55;;;;;;;;;;;;;;;-0.87;100.00;101459.28;1834854;77;20287;-36
2020/12/16 01:12:23;;;;;;;;;;;;;;;-0.86;100.00;101446.48;1842417;77;20126;-36
2020/12/16 01:14:50;;;;;;;;;;;;;;;-0.83;100.00;101446.99;1839352;77;20465;-37
2020/12/16 01:17:18;;;;;;;;;;;;;;;-0.82;100.00;101464.20;1832407;78;20151;-38
2020/12/16 01:19:46;;;;;;;;;;;;;;;-0.81;100.00;101460.81;1832308;78;20228;-37
2020/12/16 01:22:14;;;;;;;;;;;;;;;-0.80;100.00;101470.30;1832425;78;20462;-37
2020/12/16 01:24:42;;;;;;;;;;;;;;;-0.78;100.00;101468.64;1832660;78;20180;-37
2020/12/16 01:27:09;;;;;;;;;;;;;;;-0.77;100.00;101467.84;1832341;78;20275;-36
2020/12/16 01:29:38;;;;;;;;;;;;;;;-0.76;100.00;101461.88;1835595;77;20434;-37
2020/12/16 01:32:06;;;;;;;;;;;;;;;-0.73;100.00;101481.73;1832373;78;20152;-39
2020/12/16 01:34:36;;;;;;;;;;;;;;;-0.73;100.00;101478.75;1832516;78;20407;-36
2020/12/16 01:37:05;;;;;;;;;;;;;;;-0.70;100.00;101484.01;1834920;77;20185;-37
2020/12/16 01:39:35;;;;;;;;;;;;;;;-0.69;100.00;101472.90;1835392;78;20138;-38
2020/12/16 01:42:03;;;;;;;;;;;;;;;-0.69;100.00;101466.46;1834284;78;20367;-37
2020/12/16 01:44:31;;;;;;;;;;;;;;;-0.67;100.00;101466.12;1840489;78;20160;-36
2020/12/16 01:47:01;;;;;;;;;;;;;;;-0.66;100.00;101474.73;1840671;78;20286;-39
2020/12/16 01:49:43;;;;;;;;;;;;;;;-0.67;100.00;101475.55;1841087;78;20129;-39
2020/12/16 01:52:16;;;;;;;;;;;;;;;-0.64;100.00;101476.94;1835870;78;20210;-35
2020/12/16 01:54:45;;;;;;;;;;;;;;;-0.63;100.00;101483.45;1837516;77;20172;-37
2020/12/16 01:57:17;;;;;;;;;;;;;;;-0.63;100.00;101480.87;1832366;78;20627;-38
2020/12/16 01:59:47;;;;;;;;;;;;;;;-0.62;100.00;101471.05;1832056;78;20198;-37
2020/12/16 02:02:20;;;;;;;;;;;;;;;-0.61;100.00;101471.52;1831514;78;20196;-37
2020/12/16 02:04:48;;;;;;;;;;;;;;;-0.61;100.00;101468.06;1832658;78;20370;-39
2020/12/16 02:07:16;;;;;;;;;;;;;;;-0.61;100.00;101466.38;1832486;78;20746;-37
2020/12/16 02:09:45;;;;;;;;;;;;;;;-0.60;100.00;101468.54;1832210;78;20152;-38
2020/12/16 02:12:18;;;;;;;;;;;;;;;-0.60;100.00;101468.14;1832444;78;20148;-39
2020/12/16 02:14:46;;;;;;;;;;;;;;;-0.61;100.00;101476.67;1832201;78;20149;-37
2020/12/16 02:17:16;;;;;;;;;;;;;;;-0.61;100.00;101470.64;1818509;79;20149;-38
2020/12/16 02:19:57;;;;;;;;;;;;;;;-0.63;100.00;101474.44;1832352;78;20188;-37
2020/12/16 02:22:25;;;;;;;;;;;;;;;-0.62;100.00;101480.47;1802741;78;20231;-37
2020/12/16 02:26:50;;;;;;;;;;;;;;;-0.60;100.00;101482.30;1911882;74;20296;-38
2020/12/16 02:29:18;;;;;;;;;;;;;;;-0.66;100.00;101483.74;1887630;75;20136;-38
2020/12/16 02:31:48;;;;;;;;;;;;;;;-0.69;100.00;101483.60;1869679;75;20120;-37
2020/12/16 02:34:16;;;;;;;;;;;;;;;-0.71;100.00;101482.24;1846630;77;20249;-38
2020/12/16 02:36:46;;;;;;;;;;;;;;;-0.71;100.00;101489.09;1868033;75;20123;-41
2020/12/16 02:39:16;;;;;;;;;;;;;;;-0.72;100.00;101495.08;1868144;76;20124;-38
2020/12/16 02:42:01;;;;;;;;;;;;;;;-0.71;100.00;101496.41;1868428;76;20168;-38
2020/12/16 02:44:30;;;;;;;;;;;;;;;-0.68;100.00;101500.41;1867921;76;20179;-39
2020/12/16 02:47:00;;;;;;;;;;;;;;;-0.67;100.00;101502.17;1868034;76;20191;-41
2020/12/16 02:49:29;;;;;;;;;;;;;;;-0.66;100.00;101505.63;1871706;77;20122;-38
2020/12/16 02:51:58;;;;;;;;;;;;;;;-0.66;100.00;101497.50;1868955;77;20391;-38
2020/12/16 02:54:27;;;;;;;;;;;;;;;-0.66;100.00;101497.50;1867829;77;20123;-37
2020/12/16 02:57:05;;;;;;;;;;;;;;;-0.65;100.00;101500.52;1866556;77;20461;-37
2020/12/16 02:59:35;;;;;;;;;;;;;;;-0.63;100.00;101504.45;1867586;77;20146;-38
2020/12/16 03:02:05;;;;;;;;;;;;;;;-0.62;100.00;101498.49;1862339;77;20229;-38
2020/12/16 03:04:50;;;;;;;;;;;;;;;-0.62;100.00;101503.23;1866464;77;20166;-37
2020/12/16 03:07:20;;;;;;;;;;;;;;;-0.61;100.00;101499.84;1866716;77;20138;-37
2020/12/16 03:09:47;;;;;;;;;;;;;;;-0.62;100.00;101492.94;1867294;77;20401;-38
2020/12/16 03:12:16;;;;;;;;;;;;;;;-0.60;100.00;101490.02;1867924;76;20163;-37
2020/12/16 03:14:46;;;;;;;;;;;;;;;-0.59;100.00;101491.75;1796637;80;20155;-36
2020/12/16 03:17:13;;;;;;;;;;;;;;;-0.58;100.00;101499.95;1797756;80;20386;-37
2020/12/16 03:19:43;;;;;;;;;;;;;;;-0.56;100.00;101505.17;1812433;78;20189;-37
2020/12/16 03:22:11;;;;;;;;;;;;;;;-0.56;100.00;101507.75;1814133;79;20275;-39
2020/12/16 03:24:49;;;;;;;;;;;;;;;-0.56;100.00;101521.52;1811607;79;20145;-37
2020/12/16 03:27:24;;;;;;;;;;;;;;;-0.55;100.00;101511.69;1772663;79;20248;-39
2020/12/16 03:29:56;;;;;;;;;;;;;;;-0.53;100.00;101522.05;1813409;79;20133;-40
2020/12/16 03:32:42;;;;;;;;;;;;;;;-0.53;100.00;101522.94;1819647;78;20157;-37
2020/12/16 03:35:18;;;;;;;;;;;;;;;-0.53;100.00;101522.05;1829414;78;20128;-38
2020/12/16 03:37:46;;;;;;;;;;;;;;;-0.53;100.00;101520.77;1830543;78;20133;-38
2020/12/16 03:40:15;;;;;;;;;;;;;;;-0.52;100.00;101527.24;1830559;78;20188;-39
2020/12/16 03:42:46;;;;;;;;;;;;;;;-0.51;100.00;101531.59;1829052;78;20184;-39
2020/12/16 03:45:14;;;;;;;;;;;;;;;-0.52;100.00;101522.09;1830604;78;20166;-37
2020/12/16 03:47:44;;;;;;;;;;;;;;;-0.50;100.00;101535.92;1830501;78;20180;-37
2020/12/16 03:50:11;;;;;;;;;;;;;;;-0.51;100.00;101526.84;1830507;78;20192;-38
2020/12/16 03:52:40;;;;;;;;;;;;;;;-0.50;100.00;101533.75;1830809;78;20145;-36
2020/12/16 03:55:27;;;;;;;;;;;;;;;-0.50;100.00;101520.88;1760065;81;20220;-38
2020/12/16 03:58:24;;;;;;;;;;;;;;;-0.46;100.00;101536.51;1912967;74;20301;-45
2020/12/16 04:00:56;;;;;;;;;;;;;;;-0.50;100.00;101535.92;1840375;76;20269;-39
2020/12/16 04:03:25;;;;;;;;;;;;;;;-0.50;100.00;101535.04;1878772;75;20278;-38
2020/12/16 04:05:58;;;;;;;;;;;;;;;-0.50;100.00;101542.77;1901775;75;20322;-37
2020/12/16 04:08:26;;;;;;;;;;;;;;;-0.50;100.00;101550.09;1877088;75;20121;-39
2020/12/16 04:10:55;;;;;;;;;;;;;;;-0.50;100.00;101550.49;1862704;76;20205;-37
2020/12/16 04:13:25;;;;;;;;;;;;;;;-0.49;100.00;101562.16;1870448;75;20182;-38
2020/12/16 04:15:53;;;;;;;;;;;;;;;-0.50;100.00;101553.95;1867439;77;20159;-38
2020/12/16 04:18:22;;;;;;;;;;;;;;;-0.49;100.00;101557.00;1869746;77;20162;-44
2020/12/16 04:20:49;;;;;;;;;;;;;;;-0.49;100.00;101562.16;1871409;77;20135;-37
2020/12/16 04:23:18;;;;;;;;;;;;;;;-0.47;100.00;101563.52;1871557;77;20245;-36
2020/12/16 04:25:48;;;;;;;;;;;;;;;-0.48;100.00;101569.07;1869177;77;20154;-37
2020/12/16 04:28:17;;;;;;;;;;;;;;;-0.48;100.00;101575.51;1867581;77;20176;-38
2020/12/16 04:30:45;;;;;;;;;;;;;;;-0.47;100.00;101578.97;1868630;75;20468;-37
2020/12/16 04:33:12;;;;;;;;;;;;;;;-0.48;100.00;101579.37;1871489;77;20154;-38
2020/12/16 04:35:40;;;;;;;;;;;;;;;-0.49;100.00;101577.61;1871227;75;20170;-41
2020/12/16 04:38:08;;;;;;;;;;;;;;;-0.48;100.00;101578.09;1867882;77;20162;-39
2020/12/16 04:40:38;;;;;;;;;;;;;;;-0.48;100.00;101589.67;1867467;77;20206;-38
2020/12/16 04:43:11;;;;;;;;;;;;;;;-0.48;100.00;101584.52;1870063;75;20205;-40
2020/12/16 04:45:40;;;;;;;;;;;;;;;-0.47;100.00;101584.12;1868103;77;20120;-39
2020/12/16 04:48:10;;;;;;;;;;;;;;;-0.48;100.00;101587.09;1886106;75;20167;-40
2020/12/16 04:50:38;;;;;;;;;;;;;;;-0.47;100.00;101584.12;1872936;75;20381;-36
2020/12/16 04:53:09;;;;;;;;;;;;;;;-0.45;100.00;101594.05;1867920;77;20415;-40
2020/12/16 04:55:41;;;;;;;;;;;;;;;-0.47;100.00;101592.73;1867265;75;20378;-38
2020/12/16 04:58:16;;;;;;;;;;;;;;;-0.46;100.00;101591.88;1867621;76;20130;-39
2020/12/16 05:00:44;;;;;;;;;;;;;;;-0.45;100.00;101596.63;1867835;77;20122;-37
2020/12/16 05:03:17;;;;;;;;;;;;;;;-0.44;100.00;101590.67;1867494;77;20268;-38
2020/12/16 05:05:52;;;;;;;;;;;;;;;-0.44;100.00;101594.12;1870816;75;20154;-34
2020/12/16 05:08:20;;;;;;;;;;;;;;;-0.43;100.00;101599.75;1881845;75;20124;-37
2020/12/16 05:10:49;;;;;;;;;;;;;;;-0.42;100.00;101598.94;1867456;77;20130;-38
2020/12/16 05:13:19;;;;;;;;;;;;;;;-0.41;100.00;101600.71;1867107;77;20297;-37
2020/12/16 05:15:48;;;;;;;;;;;;;;;-0.41;100.00;101600.71;1867614;75;20295;-39
2020/12/16 05:18:21;;;;;;;;;;;;;;;-0.40;100.00;101604.17;1867070;76;20185;-38
2020/12/16 05:20:58;;;;;;;;;;;;;;;-0.40;100.00;101604.17;1867259;75;20190;-40
2020/12/16 05:23:30;;;;;;;;;;;;;;;-0.40;100.00;101601.59;1865498;75;20169;-40
2020/12/16 05:26:03;;;;;;;;;;;;;;;-0.40;100.00;101601.59;1868351;76;20432;-39
2020/12/16 05:28:33;;;;;;;;;;;;;;;-0.39;100.00;101611.48;1833678;77;20173;-39
2020/12/16 05:31:09;;;;;;;;;;;;;;;-0.39;100.00;101611.05;1832827;77;20227;-40
2020/12/16 05:33:42;;;;;;;;;;;;;;;-0.37;100.00;101613.70;1830505;77;20208;-39
2020/12/16 05:36:10;;;;;;;;;;;;;;;-0.37;100.00;101612.41;1814446;78;20223;-39
2020/12/16 05:38:52;;;;;;;;;;;;;;;-0.36;100.00;101615.47;1815237;78;20194;-38
2020/12/16 05:41:27;;;;;;;;;;;;;;;-0.36;100.00;101613.77;1816456;77;20220;-37
2020/12/16 05:44:15;;;;;;;;;;;;;;;-0.35;100.00;101614.66;1822722;78;20424;-38
2020/12/16 05:46:44;;;;;;;;;;;;;;;-0.35;100.00;101618.52;1766031;80;20531;-36
2020/12/16 05:49:24;;;;;;;;;;;;;;;-0.35;100.00;101620.69;1829348;77;20173;-39
2020/12/16 05:52:02;;;;;;;;;;;;;;;-0.33;100.00;101629.78;1800597;77;20149;-39
2020/12/16 05:54:41;;;;;;;;;;;;;;;-0.33;100.00;101624.62;1815784;78;20660;-39
2020/12/16 05:57:31;;;;;;;;;;;;;;;-0.33;100.00;101636.22;1770656;78;20129;-40
2020/12/16 06:00:19;;;;;;;;;;;;;;;-0.33;100.00;101643.55;1762090;78;20171;-39
2020/12/16 06:03:29;;;;;;;;;;;;;;;-0.32;100.00;101645.68;1827547;77;20188;-39
2020/12/16 06:06:05;;;;;;;;;;;;;;;-0.31;100.00;101647.04;1778004;78;20147;-39
2020/12/16 06:08:40;;;;;;;;;;;;;;;-0.31;100.00;101643.17;1794547;78;20129;-41
2020/12/16 06:11:12;;;;;;;;;;;;;;;-0.30;100.00;101645.34;1809554;78;20192;-40
2020/12/16 06:13:45;;;;;;;;;;;;;;;-0.31;100.00;101653.89;1821288;77;20270;-38
2020/12/16 06:16:13;;;;;;;;;;;;;;;-0.31;100.00;101656.47;1805146;77;20186;-39
2020/12/16 06:18:43;;;;;;;;;;;;;;;-0.31;100.00;101653.48;1802845;77;20206;-40
2020/12/16 06:21:13;;;;;;;;;;;;;;;-0.30;100.00;101658.23;1818420;78;20188;-38
2020/12/16 06:26:53;;;;;;;;;;;;;;;-0.27;100.00;101661.84;1901198;74;20197;-39
2020/12/16 06:29:21;;;;;;;;;;;;;;;-0.31;100.00;101671.52;1858185;75;20526;-37
2020/12/16 06:31:51;;;;;;;;;;;;;;;-0.31;100.00;101674.50;1853935;75;20193;-40
2020/12/16 06:34:19;;;;;;;;;;;;;;;-0.30;100.00;101676.27;1882287;75;20258;-46
2020/12/16 06:36:49;;;;;;;;;;;;;;;-0.30;100.00;101674.57;1843906;75;20436;-43
2020/12/16 06:39:23;;;;;;;;;;;;;;;-0.31;100.00;101668.05;1855039;75;20481;-38
2020/12/16 06:41:59;;;;;;;;;;;;;;;-0.34;100.00;101679.53;1842551;75;20309;-40
2020/12/16 06:44:27;;;;;;;;;;;;;;;-0.36;100.00;101673.02;1868472;75;20241;-39
2020/12/16 06:46:55;;;;;;;;;;;;;;;-0.36;100.00;101672.14;1871833;75;20185;-40
2020/12/16 06:49:26;;;;;;;;;;;;;;;-0.35;100.00;101670.92;1872870;75;20211;-41
2020/12/16 06:51:56;;;;;;;;;;;;;;;-0.34;100.00;101680.42;1872895;75;20471;-39
2020/12/16 06:54:25;;;;;;;;;;;;;;;-0.32;100.00;101680.46;1882055;75;20163;-40
2020/12/16 06:57:14;;;;;;;;;;;;;;;-0.30;100.00;101680.13;1884915;75;20618;-39
2020/12/16 06:59:56;;;;;;;;;;;;;;;-0.29;100.00;101677.63;1870545;75;20294;-39
2020/12/16 07:02:29;;;;;;;;;;;;;;;-0.27;100.00;101681.16;1870965;75;20174;-40
2020/12/16 07:05:00;;;;;;;;;;;;;;;-0.26;100.00;101683.33;1872380;75;20173;-40
2020/12/16 07:07:43;;;;;;;;;;;;;;;-0.23;100.00;101683.44;1842134;75;20197;-41
2020/12/16 07:10:35;;;;;;;;;;;;;;;-0.20;100.00;101683.18;1868154;75;20213;-39
2020/12/16 07:13:26;;;;;;;;;;;;;;;-0.15;100.00;101688.52;1880708;75;20202;-38
2020/12/16 07:15:56;;;;;;;;;;;;;;;-0.16;100.00;101682.89;1870329;75;20288;-39
2020/12/16 07:18:34;;;;;;;;;;;;;;;-0.16;100.00;101684.17;1882356;75;20219;-38
2020/12/16 07:21:11;;;;;;;;;;;;;;;-0.12;100.00;101682.19;1876584;75;20288;-37
2020/12/16 07:24:02;;;;;;;;;;;;;;;-0.08;100.00;101689.25;1872917;75;20545;-38
2020/12/16 07:26:33;;;;;;;;;;;;;;;-0.04;100.00;101695.00;1859607;75;20191;-38
2020/12/16 07:29:23;;;;;;;;;;;;;;;-0.01;100.00;101704.16;1871316;75;20189;-37
2020/12/16 07:32:12;;;;;;;;;;;;;;;0.02;100.00;101701.70;1871041;75;20189;-38
2020/12/16 07:34:47;;;;;;;;;;;;;;;0.05;100.00;101704.41;1870067;75;20213;-38
2020/12/16 07:37:17;;;;;;;;;;;;;;;0.04;100.00;101702.65;1873312;75;20198;-37
2020/12/16 07:39:55;;;;;;;;;;;;;;;0.03;100.00;101697.42;1873682;75;20189;-37
2020/12/16 07:42:28;;;;;;;;;;;;;;;0.05;100.00;101699.26;1870726;75;20189;-39
2020/12/16 07:44:56;;;;;;;;;;;;;;;0.06;100.00;101696.28;1855420;75;20308;-39
2020/12/16 07:47:24;;;;;;;;;;;;;;;0.08;100.00;101700.66;1880665;75;20490;-38
2020/12/16 07:49:51;;;;;;;;;;;;;;;0.13;100.00;101703.02;1874367;75;20179;-38
2020/12/16 07:52:23;;;;;;;;;;;;;;;0.16;100.00;101701.86;1871422;75;20166;-41
2020/12/16 07:54:51;;;;;;;;;;;;;;;0.23;100.00;101697.44;1870272;75;20182;-38
2020/12/16 07:57:33;;;;;;;;;;;;;;;0.31;100.00;101696.05;1871729;75;20230;-39
2020/12/16 08:00:01;;;;;;;;;;;;;;;0.32;100.00;101701.69;1868946;75;20395;-39
2020/12/16 08:02:31;;;;;;;;;;;;;;;0.35;100.00;101705.66;1868698;75;20218;-39
2020/12/16 08:05:03;;;;;;;;;;;;;;;0.36;100.00;101699.69;1867427;75;20192;-38
2020/12/16 08:07:29;;;;;;;;;;;;;;;0.39;100.00;101697.66;1871694;75;20197;-38
2020/12/16 08:10:03;;;;;;;;;;;;;;;0.43;100.00;101697.36;1868977;75;20207;-39
2020/12/16 08:12:40;;;;;;;;;;;;;;;0.39;99.79;101704.11;1867892;75;20195;-38
2020/12/16 08:15:11;;;;;;;;;;;;;;;0.39;99.57;101709.27;1866369;75;20459;-39
2020/12/16 08:17:43;;;;;;;;;;;;;;;0.34;99.33;101719.38;1836486;75;20239;-36
2020/12/16 08:20:19;;;;;;;;;;;;;;;0.32;99.25;101713.70;1867423;75;20201;-40
2020/12/16 08:22:49;;;;;;;;;;;;;;;0.27;99.05;101710.03;1867359;75;20198;-39
2020/12/16 08:25:23;;;;;;;;;;;;;;;0.20;98.73;101713.17;1846419;75;20200;-39
2020/12/16 08:27:54;;;;;;;;;;;;;;;0.17;98.48;101714.34;1874532;75;20471;-40
2020/12/16 08:30:23;;;;;;;;;;;;;;;0.16;98.33;101717.73;1866653;75;20176;-40
2020/12/16 08:33:02;;;;;;;;;;;;;;;0.19;98.33;101720.05;1871476;75;20180;-37
2020/12/16 08:35:45;;;;;;;;;;;;;;;0.26;98.30;101719.46;1868470;75;20184;-38
2020/12/16 08:38:13;;;;;;;;;;;;;;;0.28;98.09;101724.28;1867553;75;20174;-39
2020/12/16 08:40:46;;;;;;;;;;;;;;;0.32;97.97;101722.33;1870279;75;20209;-48
2020/12/16 08:43:29;;;;;;;;;;;;;;;0.33;97.86;101717.61;1871487;75;20158;-39
2020/12/16 08:46:16;;;;;;;;;;;;;;;0.37;97.73;101720.80;1874893;75;20229;-38
2020/12/16 08:48:50;;;;;;;;;;;;;;;0.38;97.50;101722.98;1870045;75;20201;-38
2020/12/16 08:51:21;;;;;;;;;;;;;;;0.39;97.33;101719.58;1866202;75;20147;-39
2020/12/16 08:53:59;;;;;;;;;;;;;;;0.36;97.10;101724.20;1868961;75;20230;-38
2020/12/16 08:56:44;;;;;;;;;;;;;;;0.38;97.05;101719.11;1867034;75;20273;-36
2020/12/16 08:59:24;;;;;;;;;;;;;;;0.38;96.95;101715.23;1870396;75;20279;-38
2020/12/16 09:01:54;;;;;;;;;;;;;;;0.39;96.87;101714.42;1867455;75;20271;-38
2020/12/16 09:04:25;;;;;;;;;;;;;;;0.44;96.87;101712.02;1869844;75;20198;-37
2020/12/16 09:07:08;;;;;;;;;;;;;;;0.45;96.83;101707.34;1809533;75;20557;-38
2020/12/16 09:09:38;;;;;;;;;;;;;;;0.45;96.81;101704.35;1860804;75;20447;-39
2020/12/16 09:12:16;;;;;;;;;;;;;;;0.48;96.88;101710.02;1872300;75;20283;-39
2020/12/16 09:14:52;;;;;;;;;;;;;;;0.49;96.79;101704.05;1871666;75;21028;-38
2020/12/16 09:17:22;;;;;;;;;;;;;;;0.52;96.86;101701.61;1874592;75;20285;-39
2020/12/16 09:19:50;;;;;;;;;;;;;;;0.57;96.87;101697.09;1871948;75;20205;-40
2020/12/16 09:22:31;;;;;;;;;;;;;;;0.63;96.82;101697.74;1868231;75;20499;-38
2020/12/16 09:25:00;;;;;;;;;;;;;;;0.67;96.76;101694.05;1867702;75;20450;-37
2020/12/16 09:27:29;;;;;;;;;;;;;;;0.71;96.71;101693.77;1869831;75;20277;-38
2020/12/16 09:29:57;;;;;;;;;;;;;;;0.77;96.73;101687.14;1870291;75;20214;-40
2020/12/16 09:32:27;;;;;;;;;;;;;;;0.82;96.51;101691.59;1867816;75;20470;-39
2020/12/16 09:34:55;;;;;;;;;;;;;;;0.84;96.36;101695.13;1869710;75;20204;-38
2020/12/16 09:37:26;;;;;;;;;;;;;;;0.83;96.10;101698.11;1851399;75;20130;-38
2020/12/16 09:40:11;;;;;;;;;;;;;;;0.77;95.87;101697.47;1867957;75;20175;-39
2020/12/16 09:42:39;;;;;;;;;;;;;;;0.69;95.74;101697.98;1868665;75;20332;-39
2020/12/16 09:45:15;;;;;;;;;;;;;;;0.64;95.74;101698.22;1869811;75;20298;-39
2020/12/16 09:47:53;;;;;;;;;;;;;;;0.65;95.79;101696.11;1871448;75;20253;-39
2020/12/16 09:50:27;;;;;;;;;;;;;;;0.66;95.80;101705.17;1870973;75;20231;-40
2020/12/16 09:53:03;;;;;;;;;;;;;;;0.65;95.77;101711.59;1871899;75;20204;-40
2020/12/16 09:55:39;;;;;;;;;;;;;;;0.61;95.70;101709.28;1871198;75;20261;-38
2020/12/16 09:58:15;;;;;;;;;;;;;;;0.54;95.67;101708.56;1849640;75;20521;-43
2020/12/16 10:00:47;;;;;;;;;;;;;;;0.45;95.71;101710.80;1854059;75;20243;-42
2020/12/16 10:03:18;;;;;;;;;;;;;;;0.44;95.87;101722.34;1869702;75;20205;-40
2020/12/16 10:05:47;;;;;;;;;;;;;;;0.40;96.00;101718.33;1845362;75;20198;-39
2020/12/16 10:08:16;;;;;;;;;;;;;;;0.38;96.14;101728.13;1866741;75;20728;-38
2020/12/16 10:10:45;;;;;;;;;;;;;;;0.37;96.28;101731.53;1867271;75;20209;-39
2020/12/16 10:13:13;;;;;;;;;;;;;;;0.37;96.42;101728.95;1868903;75;20153;-38
2020/12/16 10:15:41;;;;;;;;;;;;;;;0.37;96.52;101731.13;1866907;75;20199;-36
2020/12/16 10:18:09;;;;;;;;;;;;;;;0.32;96.61;101721.03;1870852;75;20420;-37
2020/12/16 10:20:37;;;;;;;;;;;;;;;0.27;96.83;101724.21;1867742;75;20151;-35
2020/12/16 10:26:50;;;;;;;;;;;;;;;0.23;97.19;101729.66;1887927;74;20568;-39
2020/12/16 10:29:18;;;;;;;;;;;;;;;0.18;97.28;101732.88;1862288;75;20471;-39
2020/12/16 10:31:48;;;;;;;;;;;;;;;0.16;97.39;101731.92;1866050;75;20195;-36
2020/12/16 10:34:16;;;;;;;;;;;;;;;0.13;97.48;101728.80;1865973;75;20130;-38
2020/12/16 10:36:50;;;;;;;;;;;;;;;0.11;97.57;101718.84;1868851;75;20568;-46
2020/12/16 10:39:20;;;;;;;;;;;;;;;0.10;97.64;101719.66;1874683;75;20226;-38
2020/12/16 10:41:52;;;;;;;;;;;;;;;0.10;97.66;101722.64;1869393;75;20292;-39
2020/12/16 10:44:20;;;;;;;;;;;;;;;0.11;97.72;101717.56;1873024;75;20299;-39
2020/12/16 10:46:48;;;;;;;;;;;;;;;0.11;97.72;101721.83;1872298;75;20199;-39
2020/12/16 10:49:17;;;;;;;;;;;;;;;0.11;97.73;101725.30;1869993;75;20435;-39
2020/12/16 10:51:45;;;;;;;;;;;;;;;0.10;97.80;101723.94;1871375;75;20205;-43
2020/12/16 10:54:14;;;;;;;;;;;;;;;0.12;97.84;101727.47;1868791;75;20279;-38
2020/12/16 10:56:41;;;;;;;;;;;;;;;0.14;97.85;101733.55;1874537;75;20280;-39
2020/12/16 10:59:09;;;;;;;;;;;;;;;0.16;97.83;101732.80;1870315;75;20179;-39
2020/12/16 11:01:38;;;;;;;;;;;;;;;0.20;97.84;101733.80;1869186;75;20155;-39
2020/12/16 11:04:08;;;;;;;;;;;;;;;0.21;97.76;101731.29;1867568;75;20121;-36
2020/12/16 11:06:36;;;;;;;;;;;;;;;0.22;97.75;101731.77;1869258;75;20174;-38
2020/12/16 11:09:04;;;;;;;;;;;;;;;0.19;97.80;101720.05;1869879;75;20292;-37
2020/12/16 11:11:32;;;;;;;;;;;;;;;0.16;97.85;101731.52;1868206;75;20146;-42
2020/12/16 11:13:59;;;;;;;;;;;;;;;0.16;97.88;101739.66;1874193;75;20130;-41
2020/12/16 11:16:30;;;;;;;;;;;;;;;0.16;97.88;101740.54;1871915;75;20285;-39
2020/12/16 11:18:59;;;;;;;;;;;;;;;0.14;97.88;101747.32;1874091;75;20118;-40
2020/12/16 11:21:28;;;;;;;;;;;;;;;0.16;97.88;101748.68;1869126;75;20237;-39
2020/12/16 11:23:56;;;;;;;;;;;;;;;0.16;97.84;101745.70;1869828;75;20176;-40
2020/12/16 11:26:26;;;;;;;;;;;;;;;0.16;97.75;101740.95;1867821;75;20233;-39
2020/12/16 11:28:56;;;;;;;;;;;;;;;0.18;97.80;101745.77;1852394;75;20176;-45
2020/12/16 11:31:28;;;;;;;;;;;;;;;0.21;97.69;101743.30;1817068;75;20215;-41
2020/12/16 11:33:59;;;;;;;;;;;;;;;0.20;97.66;101751.84;1871893;75;20178;-42
2020/12/16 11:36:28;;;;;;;;;;;;;;;0.19;97.61;101751.00;1868478;75;20154;-41
2020/12/16 11:38:56;;;;;;;;;;;;;;;0.21;97.58;101757.08;1870318;75;20185;-42
2020/12/16 11:41:24;;;;;;;;;;;;;;;0.24;97.53;101761.49;1874010;75;20182;-41
2020/12/16 11:43:54;;;;;;;;;;;;;;;0.26;97.49;101761.16;1839708;75;20464;-42
2020/12/16 11:46:22;;;;;;;;;;;;;;;0.26;97.44;101764.59;1867029;75;20221;-41
2020/12/16 11:48:50;;;;;;;;;;;;;;;0.25;97.39;101770.59;1872261;75;20177;-40
2020/12/16 11:51:18;;;;;;;;;;;;;;;0.20;97.39;101768.20;1870690;75;20249;-41
2020/12/16 11:53:46;;;;;;;;;;;;;;;0.17;97.43;101774.94;1868813;75;20186;-39
2020/12/16 11:56:14;;;;;;;;;;;;;;;0.16;97.51;101784.38;1868346;75;20223;-39
2020/12/16 11:58:44;;;;;;;;;;;;;;;0.15;97.55;101781.31;1866694;75;20179;-40
2020/12/16 12:01:13;;;;;;;;;;;;;;;0.16;97.57;101783.08;1867774;75;20281;-39
2020/12/16 12:03:41;;;;;;;;;;;;;;;0.16;97.58;101777.92;1869300;75;20185;-40
2020/12/16 12:06:11;;;;;;;;;;;;;;;0.16;97.54;101781.80;1871486;75;20286;-41
2020/12/16 12:08:39;;;;;;;;;;;;;;;0.15;97.56;101772.29;1868848;75;20273;-43
2020/12/16 12:11:08;;;;;;;;;;;;;;;0.14;97.55;101782.53;1868419;75;20187;-42
2020/12/16 12:13:36;;;;;;;;;;;;;;;0.13;97.52;101784.67;1865901;75;20292;-43
2020/12/16 12:16:04;;;;;;;;;;;;;;;0.12;97.52;101784.19;1870333;75;20193;-42
2020/12/16 12:18:31;;;;;;;;;;;;;;;0.10;97.53;101793.14;1867536;75;20559;-38
2020/12/16 12:20:59;;;;;;;;;;;;;;;0.09;97.54;101786.21;1869883;75;20210;-39
2020/12/16 12:23:27;;;;;;;;;;;;;;;0.09;97.56;101791.37;1873944;75;20490;-39
2020/12/16 12:26:04;;;;;;;;;;;;;;;0.08;97.62;101798.63;1870579;75;20185;-39
2020/12/16 12:28:32;;;;;;;;;;;;;;;0.10;97.69;101802.56;1844149;75;20264;-40
2020/12/16 12:30:59;;;;;;;;;;;;;;;0.10;97.78;101807.72;1866933;75;20511;-39
2020/12/16 12:33:27;;;;;;;;;;;;;;;0.09;97.84;101808.12;1872428;75;20257;-38
2020/12/16 12:35:55;;;;;;;;;;;;;;;0.10;97.93;101811.19;1871263;75;20483;-41
2020/12/16 12:38:23;;;;;;;;;;;;;;;0.08;98.03;101811.92;1870665;75;20207;-42
2020/12/16 12:40:50;;;;;;;;;;;;;;;0.09;98.12;101820.13;1869017;75;20150;-41
2020/12/16 12:43:18;;;;;;;;;;;;;;;0.08;98.20;101817.08;1868511;75;20460;-41
2020/12/16 12:45:46;;;;;;;;;;;;;;;0.08;98.30;101816.67;1873981;75;20318;-41
2020/12/16 12:48:15;;;;;;;;;;;;;;;0.05;98.36;101819.13;1836090;75;20191;-42
2020/12/16 12:50:42;;;;;;;;;;;;;;;0.04;98.44;101826.39;1869902;75;20180;-43
2020/12/16 12:53:11;;;;;;;;;;;;;;;0.01;98.53;101819.80;1869806;75;20524;-41
2020/12/16 12:55:38;;;;;;;;;;;;;;;-0.01;98.61;101824.02;1865991;75;20448;-41
2020/12/16 12:58:06;;;;;;;;;;;;;;;-0.03;98.69;101829.11;1871003;75;20172;-43
2020/12/16 13:00:34;;;;;;;;;;;;;;;-0.04;98.80;101832.89;1871537;75;20175;-46
2020/12/16 13:03:01;;;;;;;;;;;;;;;-0.06;98.89;101824.20;1871403;75;20206;-48
2020/12/16 13:05:29;;;;;;;;;;;;;;;-0.08;99.04;101832.30;1874507;75;20294;-43